createdAt,value
2022-10-20T00:01:19.438Z,4.87
2022-10-20T00:03:47.605Z,5.70
2022-10-20T00:06:20.982Z,5.87
2022-10-20T00:08:52.511Z,6.07
2022-10-20T00:11:22.630Z,5.03
2022-10-20T00:13:53.106Z,6.57
2022-10-20T00:16:22.247Z,5.73
2022-10-20T00:18:49.991Z,6.17
2022-10-20T00:21:25.001Z,5.57
2022-10-20T00:23:55.889Z,5.70
2022-10-20T00:26:26.275Z,4.27
2022-10-20T00:28:54.389Z,5.57
2022-10-20T00:31:23.526Z,6.50
2022-10-20T00:33:50.853Z,7.70
2022-10-20T00:36:20.573Z,7.77
2022-10-20T00:38:48.345Z,5.20
2022-10-20T00:41:18.156Z,5.03
2022-10-20T00:43:51.946Z,6.37
2022-10-20T00:46:27.993Z,6.00
2022-10-20T00:49:07.085Z,5.53
2022-10-20T00:51:34.761Z,8.63
2022-10-20T00:54:10.696Z,8.30
2022-10-20T00:56:42.088Z,5.87
2022-10-20T00:59:11.573Z,7.53
2022-10-20T01:01:40.687Z,4.73
2022-10-20T01:04:08.171Z,5.03
2022-10-20T01:06:36.219Z,4.97
2022-10-20T01:09:03.907Z,9.80
2022-10-20T01:12:08.877Z,5.23
2022-10-20T01:14:50.662Z,6.33
2022-10-20T01:17:54.554Z,6.80
2022-10-20T01:20:27.615Z,10.67
2022-10-20T01:23:32.195Z,7.43
2022-10-20T01:26:28.984Z,5.30
2022-10-20T01:28:58.845Z,8.00
2022-10-20T01:31:49.301Z,8.10
2022-10-20T01:34:24.235Z,7.67
2022-10-20T01:37:08.783Z,7.70
2022-10-20T01:39:46.551Z,11.13
2022-10-20T01:42:19.710Z,6.07
2022-10-20T01:44:51.912Z,6.80
2022-10-20T01:47:21.447Z,7.90
2022-10-20T01:49:53.703Z,6.27
2022-10-20T01:52:23.387Z,6.47
2022-10-20T01:54:51.277Z,8.43
2022-10-20T01:57:18.558Z,10.43
2022-10-20T02:00:09.361Z,8.23
2022-10-20T02:02:54.850Z,7.30
2022-10-20T02:05:38.728Z,7.77
2022-10-20T02:08:17.782Z,8.43
2022-10-20T02:10:48.864Z,8.23
2022-10-20T02:13:18.132Z,8.00
2022-10-20T02:15:54.906Z,7.90
2022-10-20T02:18:34.079Z,8.43
2022-10-20T02:21:04.239Z,11.23
2022-10-20T02:23:36.595Z,7.57
2022-10-20T02:26:11.230Z,7.90
2022-10-20T02:28:42.427Z,9.03
2022-10-20T02:31:10.350Z,9.20
2022-10-20T02:33:38.932Z,8.30
2022-10-20T02:36:12.194Z,8.53
2022-10-20T02:38:39.496Z,11.20
2022-10-20T02:41:06.531Z,9.63
2022-10-20T02:43:33.727Z,9.27
2022-10-20T02:46:03.299Z,9.87
2022-10-20T02:48:31.206Z,9.30
2022-10-20T02:50:58.425Z,11.37
2022-10-20T02:53:26.334Z,11.90
2022-10-20T02:55:56.863Z,9.63
2022-10-20T02:58:24.422Z,10.83
2022-10-20T03:00:51.654Z,11.07
2022-10-20T03:03:19.386Z,13.77
2022-10-20T03:05:47.747Z,9.77
2022-10-20T03:08:16.266Z,9.87
2022-10-20T03:10:46.987Z,11.17
2022-10-20T03:13:15.893Z,10.70
2022-10-20T03:15:43.191Z,20.93
2022-10-20T03:18:10.102Z,11.17
2022-10-20T03:20:37.658Z,11.10
2022-10-20T03:23:08.757Z,10.90
2022-10-20T03:25:39.373Z,12.83
2022-10-20T03:28:06.969Z,11.03
2022-10-20T03:30:34.015Z,11.10
2022-10-20T03:33:00.976Z,11.00
2022-10-20T03:35:28.333Z,11.10
2022-10-20T03:37:55.781Z,10.63
2022-10-20T03:40:23.009Z,10.53
2022-10-20T03:42:50.218Z,10.70
2022-10-20T03:45:20.373Z,10.03
2022-10-20T03:47:47.773Z,11.20
2022-10-20T03:50:14.851Z,12.03
2022-10-20T03:52:41.934Z,11.63
2022-10-20T03:55:09.480Z,10.40
2022-10-20T03:57:37.986Z,11.33
2022-10-20T04:00:05.937Z,11.27
2022-10-20T04:02:39.877Z,10.83
2022-10-20T04:05:07.818Z,11.00
2022-10-20T04:07:35.242Z,13.37
2022-10-20T04:10:03.490Z,10.77
2022-10-20T04:12:36.557Z,11.10
2022-10-20T04:15:05.217Z,12.63
2022-10-20T04:17:33.155Z,10.83
2022-10-20T04:20:00.435Z,10.13
2022-10-20T04:22:27.657Z,11.27
2022-10-20T04:24:54.610Z,11.13
2022-10-20T04:27:22.314Z,11.50
2022-10-20T04:29:49.772Z,13.13
2022-10-20T04:32:17.290Z,11.90
2022-10-20T04:34:44.766Z,10.63
2022-10-20T04:37:12.933Z,11.70
2022-10-20T04:39:40.957Z,11.50
2022-10-20T04:42:08.574Z,10.73
2022-10-20T04:44:37.065Z,10.60
2022-10-20T04:47:05.003Z,10.40
2022-10-20T04:49:32.153Z,13.53
2022-10-20T04:52:01.233Z,10.40
2022-10-20T04:54:28.834Z,11.00
2022-10-20T04:56:56.653Z,10.90
2022-10-20T04:59:23.810Z,10.47
2022-10-20T05:09:51.212Z,10.57
2022-10-20T05:12:18.424Z,10.47
2022-10-20T05:14:45.351Z,10.73
2022-10-20T05:17:12.272Z,10.93
2022-10-20T05:19:39.324Z,9.87
2022-10-20T05:22:06.238Z,11.10
2022-10-20T05:24:33.096Z,11.50
2022-10-20T05:26:59.954Z,13.60
2022-10-20T05:29:26.910Z,10.27
2022-10-20T05:31:53.773Z,10.47
2022-10-20T05:34:20.664Z,11.90
2022-10-20T05:36:47.750Z,11.37
2022-10-20T05:39:15.069Z,9.50
2022-10-20T05:41:41.963Z,11.27
2022-10-20T05:44:11.910Z,10.30
2022-10-20T05:49:28.595Z,10.63
2022-10-20T05:51:55.800Z,10.53
2022-10-20T05:54:23.135Z,10.10
2022-10-20T05:56:49.954Z,10.90
2022-10-20T05:59:16.860Z,9.60
2022-10-20T06:01:49.671Z,9.57
2022-10-20T06:04:25.374Z,13.90
2022-10-20T06:06:53.180Z,9.83
2022-10-20T06:09:21.673Z,10.23
2022-10-20T06:11:49.437Z,10.10
2022-10-20T06:14:17.797Z,9.23
2022-10-20T06:16:46.351Z,9.10
2022-10-20T06:19:14.077Z,8.87
2022-10-20T06:24:10.112Z,10.37
2022-10-20T06:26:39.059Z,7.97
2022-10-20T06:29:13.150Z,13.97
2022-10-20T06:31:45.182Z,10.50
2022-10-20T06:34:16.427Z,9.67
2022-10-20T06:36:43.830Z,9.90
2022-10-20T06:39:17.757Z,10.33
2022-10-20T06:41:50.591Z,7.90
2022-10-20T06:44:19.627Z,9.20
2022-10-20T06:46:50.281Z,9.17
2022-10-20T06:49:17.506Z,9.90
2022-10-20T06:51:45.018Z,9.17
2022-10-20T06:54:12.115Z,7.87
2022-10-20T06:56:40.126Z,14.03
2022-10-20T06:59:07.225Z,8.03
2022-10-20T07:01:37.564Z,7.90
2022-10-20T07:04:11.368Z,7.57
2022-10-20T07:06:40.759Z,10.53
2022-10-20T07:09:12.188Z,8.60
2022-10-20T07:11:39.725Z,10.20
2022-10-20T07:14:07.246Z,9.43
2022-10-20T07:16:35.649Z,9.87
2022-10-20T07:19:04.503Z,8.00
2022-10-20T07:21:35.964Z,11.10
2022-10-20T07:24:07.124Z,8.50
2022-10-20T07:26:37.008Z,8.57
2022-10-20T07:29:05.427Z,7.75
2022-10-20T07:31:36.355Z,8.00
2022-10-20T07:34:23.765Z,7.30
2022-10-20T07:36:55.789Z,9.25
2022-10-20T07:39:23.609Z,11.13
2022-10-20T07:41:50.890Z,7.30
2022-10-20T07:44:18.458Z,7.13
2022-10-20T07:46:45.943Z,7.60
2022-10-20T07:52:01.226Z,10.27
2022-10-20T07:54:28.441Z,8.20
2022-10-20T07:56:55.599Z,7.10
2022-10-20T07:59:22.795Z,10.10
2022-10-20T08:01:49.946Z,10.65
2022-10-20T08:04:17.028Z,7.38
2022-10-20T08:06:44.193Z,10.27
2022-10-20T08:09:11.447Z,13.40
2022-10-20T08:11:39.282Z,7.00
2022-10-20T08:14:06.280Z,11.70
2022-10-20T08:16:33.726Z,7.13
2022-10-20T08:19:23.074Z,7.30
2022-10-20T08:21:49.959Z,7.67
2022-10-20T08:24:17.023Z,10.07
2022-10-20T08:26:43.983Z,8.07
2022-10-20T08:29:12.445Z,7.40
2022-10-20T08:31:44.672Z,8.10
2022-10-20T08:34:12.437Z,6.40
2022-10-20T08:36:39.753Z,10.53
2022-10-20T08:39:09.228Z,8.60
2022-10-20T08:42:06.504Z,8.13
2022-10-20T08:44:34.846Z,12.10
2022-10-20T08:47:03.198Z,6.90
2022-10-20T08:49:33.606Z,7.63
2022-10-20T08:52:02.105Z,6.70
2022-10-20T08:54:29.959Z,8.40
2022-10-20T08:56:59.117Z,7.27
2022-10-20T08:59:34.538Z,7.57
2022-10-20T09:02:03.888Z,7.17
2022-10-20T09:04:40.776Z,8.00
2022-10-20T09:07:31.813Z,16.57
2022-10-20T09:10:27.303Z,27.33
2022-10-20T09:12:55.461Z,6.83
2022-10-20T09:15:27.575Z,7.70
2022-10-20T09:18:03.853Z,7.30
2022-10-20T09:20:41.494Z,8.57
2022-10-20T09:23:42.604Z,7.47
2022-10-20T09:26:30.941Z,7.23
2022-10-20T09:29:14.376Z,7.30
2022-10-20T09:31:49.943Z,9.23
2022-10-20T09:34:35.620Z,8.50
2022-10-20T09:37:12.190Z,7.77
2022-10-20T09:39:56.631Z,8.43
2022-10-20T09:42:29.585Z,6.90
2022-10-20T09:45:07.024Z,17.17
2022-10-20T09:47:38.724Z,7.60
2022-10-20T09:50:08.082Z,8.13
2022-10-20T09:52:48.062Z,7.57
2022-10-20T09:55:26.391Z,7.43
2022-10-20T09:57:55.885Z,7.80
2022-10-20T10:00:37.167Z,7.63
2022-10-20T10:03:26.402Z,9.37
2022-10-20T10:05:56.486Z,8.47
2022-10-20T10:08:27.347Z,8.37
2022-10-20T10:11:12.811Z,8.43
2022-10-20T10:13:43.958Z,10.80
2022-10-20T10:16:17.096Z,13.95
2022-10-20T10:19:16.878Z,10.50
2022-10-20T10:22:13.023Z,9.60
2022-10-20T10:24:44.244Z,7.93
2022-10-20T10:27:29.427Z,9.07
2022-10-20T10:30:16.369Z,10.97
2022-10-20T10:32:48.849Z,7.43
2022-10-20T10:35:37.904Z,8.00
2022-10-20T10:38:05.421Z,8.17
2022-10-20T10:40:54.872Z,7.67
2022-10-20T10:43:59.213Z,9.10
2022-10-20T10:46:53.678Z,8.70
2022-10-20T10:49:39.261Z,10.93
2022-10-20T10:52:29.623Z,9.77
2022-10-20T10:55:43.826Z,8.37
2022-10-20T10:58:16.417Z,9.53
2022-10-20T11:01:03.780Z,8.17
2022-10-20T11:03:42.919Z,7.73
2022-10-20T11:06:25.605Z,11.50
2022-10-20T11:09:05.120Z,7.77
2022-10-20T11:11:41.426Z,8.00
2022-10-20T11:14:46.691Z,8.53
2022-10-20T11:17:44.305Z,10.40
2022-10-20T11:20:35.189Z,7.97
2022-10-20T11:23:23.810Z,11.33
2022-10-20T11:26:03.044Z,8.03
2022-10-20T11:28:44.676Z,7.87
2022-10-20T11:31:40.271Z,8.60
2022-10-20T11:34:30.715Z,7.90
2022-10-20T11:37:15.801Z,8.37
2022-10-20T11:39:51.901Z,9.77
2022-10-20T11:42:53.089Z,10.37
2022-10-20T11:45:23.635Z,10.63
2022-10-20T11:47:58.840Z,9.00
2022-10-20T11:50:32.225Z,8.63
2022-10-20T11:53:14.440Z,8.37
2022-10-20T11:55:59.045Z,9.43
2022-10-20T11:58:35.148Z,9.17
2022-10-20T12:01:21.371Z,10.77
2022-10-20T12:04:35.649Z,9.77
2022-10-20T12:07:18.255Z,10.33
2022-10-20T12:10:23.932Z,9.23
2022-10-20T12:13:15.033Z,12.53
2022-10-20T12:16:00.353Z,10.30
2022-10-20T12:18:32.398Z,10.97
2022-10-20T12:21:08.990Z,10.67
2022-10-20T12:23:49.793Z,10.13
2022-10-20T12:26:42.587Z,10.33
2022-10-20T12:29:31.243Z,10.97
2022-10-20T12:32:26.417Z,11.10
2022-10-20T12:35:04.165Z,11.17
2022-10-20T12:37:35.563Z,11.43
2022-10-20T12:40:24.629Z,12.03
2022-10-20T12:42:55.506Z,11.50
2022-10-20T12:45:41.033Z,13.50
2022-10-20T12:48:17.681Z,13.20
2022-10-20T12:50:49.616Z,13.53
2022-10-20T12:53:22.295Z,13.00
2022-10-20T12:55:59.445Z,13.20
2022-10-20T12:58:34.258Z,13.43
2022-10-20T13:01:05.748Z,13.37
2022-10-20T13:03:36.052Z,16.33
2022-10-20T13:06:23.257Z,13.00
2022-10-20T13:09:10.953Z,13.20
2022-10-20T13:11:38.181Z,15.53
2022-10-20T13:14:30.930Z,14.20
2022-10-20T13:17:09.725Z,12.80
2022-10-20T13:19:51.416Z,13.17
2022-10-20T13:22:49.618Z,15.07
2022-10-20T13:25:44.882Z,15.03
2022-10-20T13:28:21.007Z,18.33
2022-10-20T13:31:15.871Z,15.83
2022-10-20T13:34:06.221Z,16.13
2022-10-20T13:36:50.548Z,16.17
2022-10-20T13:39:36.437Z,17.47
2022-10-20T13:42:17.925Z,19.90
2022-10-20T13:44:58.620Z,20.07
2022-10-20T13:47:43.297Z,17.37
2022-10-20T13:50:15.132Z,16.73
2022-10-20T13:52:56.696Z,17.73
2022-10-20T13:55:51.776Z,21.20
2022-10-20T13:58:24.269Z,18.03
2022-10-20T14:01:09.916Z,22.10
2022-10-20T14:03:48.582Z,17.40
2022-10-20T14:11:40.394Z,19.77
2022-10-20T14:14:11.866Z,20.37
2022-10-20T14:16:42.950Z,22.43
2022-10-20T14:19:20.370Z,20.53
2022-10-20T14:21:52.511Z,18.93
2022-10-20T14:24:46.602Z,17.13
2022-10-20T14:27:35.483Z,16.47
2022-10-20T14:30:14.930Z,17.70
2022-10-20T14:32:44.633Z,16.33
2022-10-20T14:35:27.089Z,17.47
2022-10-20T14:38:09.982Z,16.77
2022-10-20T14:40:39.000Z,16.47
2022-10-20T14:43:35.568Z,18.70
2022-10-20T14:46:04.855Z,17.27
2022-10-20T14:48:39.489Z,17.27
2022-10-20T14:51:40.655Z,18.33
2022-10-20T14:54:20.353Z,18.80
2022-10-20T14:56:52.806Z,18.17
2022-10-20T15:04:45.641Z,17.13
2022-10-20T15:07:22.538Z,19.13
2022-10-20T15:10:07.496Z,17.97
2022-10-20T15:12:37.723Z,17.83
2022-10-20T15:15:21.686Z,18.70
2022-10-20T15:18:10.295Z,17.97
2022-10-20T15:20:39.581Z,19.10
2022-10-20T15:23:09.119Z,17.90
2022-10-20T15:26:10.371Z,18.10
2022-10-20T15:28:46.117Z,18.03
2022-10-20T15:31:12.995Z,19.43
2022-10-20T15:33:41.447Z,16.27
2022-10-20T15:36:20.827Z,17.77
2022-10-20T15:38:51.418Z,18.23
2022-10-20T15:41:20.956Z,17.13
2022-10-20T15:43:47.869Z,17.27
2022-10-20T15:46:16.216Z,18.03
2022-10-20T15:48:43.704Z,16.80
2022-10-20T15:51:24.464Z,16.97
2022-10-20T15:53:51.527Z,17.50
2022-10-20T15:56:19.438Z,17.43
2022-10-20T15:58:49.413Z,17.43
2022-10-20T16:01:18.509Z,16.77
2022-10-20T16:03:46.602Z,17.23
2022-10-20T16:06:15.411Z,20.60
2022-10-20T16:08:43.789Z,17.40
2022-10-20T16:11:11.552Z,18.23
2022-10-20T16:13:39.231Z,19.17
2022-10-20T16:16:08.195Z,22.63
2022-10-20T16:18:35.444Z,21.20
2022-10-20T16:21:06.135Z,19.37
2022-10-20T16:23:36.848Z,18.17
2022-10-20T16:26:11.149Z,19.63
2022-10-20T16:28:39.525Z,20.13
2022-10-20T16:31:09.639Z,20.30
2022-10-20T16:33:37.093Z,22.50
2022-10-20T16:36:08.887Z,21.40
2022-10-20T16:38:39.921Z,21.27
2022-10-20T16:41:13.122Z,21.03
2022-10-20T16:43:42.848Z,21.70
2022-10-20T16:46:12.222Z,23.17
2022-10-20T16:48:41.548Z,22.47
2022-10-20T16:51:13.332Z,21.10
2022-10-20T16:53:40.193Z,22.80
2022-10-20T16:56:08.413Z,21.33
2022-10-20T16:58:36.206Z,24.20
2022-10-20T17:01:10.467Z,23.50
2022-10-20T17:06:10.117Z,23.00
2022-10-20T17:08:40.673Z,27.07
2022-10-20T17:11:33.233Z,24.50
2022-10-20T17:14:00.542Z,24.20
2022-10-20T17:16:38.373Z,27.30
2022-10-20T17:19:05.569Z,24.87
2022-10-20T17:21:33.965Z,24.37
2022-10-20T17:24:01.731Z,24.77
2022-10-20T17:26:33.259Z,27.60
2022-10-20T17:29:01.316Z,27.40
2022-10-20T17:31:29.772Z,25.37
2022-10-20T17:33:58.496Z,24.30
2022-10-20T17:36:26.321Z,24.50
2022-10-20T17:38:59.358Z,28.43
2022-10-20T17:41:27.163Z,25.43
2022-10-20T17:43:55.769Z,25.70
2022-10-20T17:46:22.887Z,25.10
2022-10-20T17:48:50.114Z,25.37
2022-10-20T17:51:27.804Z,27.20
2022-10-20T17:54:00.684Z,26.97
2022-10-20T17:56:35.476Z,26.67
2022-10-20T17:59:04.527Z,26.83
2022-10-20T18:01:35.103Z,27.33
2022-10-20T18:04:13.835Z,28.73
2022-10-20T18:06:42.446Z,33.30
2022-10-20T18:09:13.828Z,26.93
2022-10-20T18:11:44.857Z,27.50
2022-10-20T18:14:11.934Z,29.80
2022-10-20T18:16:40.172Z,28.13
2022-10-20T18:19:08.322Z,31.70
2022-10-20T18:21:35.528Z,29.50
2022-10-20T18:24:08.485Z,30.30
2022-10-20T18:26:37.139Z,30.03
2022-10-20T18:29:06.543Z,31.87
2022-10-20T18:31:36.599Z,33.20
2022-10-20T18:34:07.245Z,32.37
2022-10-20T18:36:37.914Z,30.50
2022-10-20T18:39:08.570Z,31.97
2022-10-20T18:41:39.349Z,35.13
2022-10-20T18:44:18.779Z,32.23
2022-10-20T18:46:47.246Z,28.47
2022-10-20T18:49:16.131Z,33.03
2022-10-20T18:51:46.848Z,31.87
2022-10-20T18:54:18.395Z,35.10
2022-10-20T18:56:46.314Z,30.67
2022-10-20T18:59:19.587Z,30.10
2022-10-20T19:01:48.376Z,33.83
2022-10-20T19:04:15.563Z,35.10
2022-10-20T19:06:46.002Z,34.63
2022-10-20T19:09:22.674Z,33.13
2022-10-20T19:14:17.678Z,31.50
2022-10-20T19:16:49.854Z,32.47
2022-10-20T19:19:16.858Z,38.53
2022-10-20T19:21:43.828Z,39.40
2022-10-20T19:24:22.406Z,37.73
2022-10-20T19:27:25.156Z,36.43
2022-10-20T19:29:42.132Z,33.10
2022-10-20T19:32:09.075Z,31.90
2022-10-20T19:34:38.385Z,35.57
2022-10-20T19:37:06.351Z,33.83
2022-10-20T19:39:39.164Z,33.97
2022-10-20T19:42:09.427Z,35.73
2022-10-20T19:44:37.420Z,34.60
2022-10-20T19:47:05.156Z,34.33
2022-10-20T19:49:32.304Z,37.27
2022-10-20T19:52:00.130Z,37.60
2022-10-20T19:54:29.077Z,39.20
2022-10-20T19:56:56.722Z,34.17
2022-10-20T19:59:23.793Z,33.00
2022-10-20T20:01:52.744Z,39.37
2022-10-20T20:04:20.104Z,35.83
2022-10-20T20:06:47.341Z,37.23
2022-10-20T20:09:15.855Z,35.37
2022-10-20T20:11:43.442Z,37.33
2022-10-20T20:14:12.802Z,37.70
2022-10-20T20:16:41.011Z,35.93
2022-10-20T20:19:08.348Z,37.90
2022-10-20T20:21:35.527Z,40.27
2022-10-20T20:24:04.061Z,37.50
2022-10-20T20:26:36.601Z,38.87
2022-10-20T20:29:05.091Z,37.97
2022-10-20T20:31:33.177Z,37.80
2022-10-20T20:34:00.384Z,37.37
2022-10-20T20:36:29.462Z,33.77
2022-10-20T20:38:58.586Z,35.20
2022-10-20T20:41:30.399Z,36.93
2022-10-20T20:43:57.858Z,39.77
2022-10-20T20:46:29.052Z,39.30
2022-10-20T20:48:56.105Z,38.47
2022-10-20T20:51:23.185Z,35.77
2022-10-20T20:53:50.061Z,41.47
2022-10-20T20:56:21.670Z,38.90
2022-10-20T20:58:51.915Z,39.80
2022-10-20T21:01:31.392Z,40.07
2022-10-20T21:04:01.752Z,39.30
2022-10-20T21:06:33.923Z,38.27
2022-10-20T21:09:11.805Z,35.47
2022-10-20T21:11:38.835Z,40.23
2022-10-20T21:14:05.954Z,37.20
2022-10-20T21:16:37.089Z,37.17
2022-10-20T21:19:09.705Z,37.47
2022-10-20T21:21:39.733Z,39.90
2022-10-20T21:24:07.677Z,35.27
2022-10-20T21:26:34.740Z,40.03
2022-10-20T21:29:01.935Z,37.57
2022-10-20T21:31:30.087Z,35.53
2022-10-20T21:33:59.954Z,34.17
2022-10-20T21:36:28.447Z,36.03
2022-10-20T21:38:55.663Z,34.67
2022-10-20T21:41:27.352Z,37.20
2022-10-20T21:43:56.972Z,36.13
2022-10-20T21:46:47.849Z,35.20
2022-10-20T21:49:18.331Z,35.50
2022-10-20T21:51:50.940Z,33.57
2022-10-20T21:56:50.189Z,34.30
2022-10-20T21:59:25.518Z,36.03
2022-10-20T22:01:54.722Z,36.23
2022-10-20T22:04:24.039Z,31.23
2022-10-20T22:06:51.060Z,32.87
2022-10-20T22:09:18.759Z,30.77
2022-10-20T22:11:50.919Z,33.97
2022-10-20T22:14:18.515Z,33.80
2022-10-20T22:16:45.575Z,33.00
2022-10-20T22:19:18.406Z,34.40
2022-10-20T22:21:46.853Z,32.80
2022-10-20T22:24:14.687Z,30.57
2022-10-20T22:26:42.413Z,30.80
2022-10-20T22:29:10.436Z,30.00
2022-10-20T22:31:39.434Z,31.67
2022-10-20T22:34:07.141Z,32.57
2022-10-20T22:36:34.211Z,35.97
2022-10-20T22:39:01.427Z,28.73
2022-10-20T22:41:28.333Z,30.30
2022-10-20T22:43:55.239Z,29.90
2022-10-20T22:46:22.350Z,35.33
2022-10-20T22:48:49.461Z,29.23
2022-10-20T22:51:16.998Z,30.57
2022-10-20T22:53:44.295Z,31.07
2022-10-20T22:56:12.455Z,28.50
2022-10-20T22:58:40.269Z,30.17
2022-10-20T23:01:13.599Z,31.03
2022-10-20T23:03:41.114Z,28.73
2022-10-20T23:06:18.598Z,29.27
2022-10-20T23:08:48.645Z,31.90
2022-10-20T23:11:15.715Z,29.40
2022-10-20T23:13:42.649Z,31.37
2022-10-20T23:16:10.276Z,29.03
2022-10-20T23:18:37.583Z,28.67
2022-10-20T23:21:05.439Z,26.67
2022-10-20T23:23:34.542Z,25.90
2022-10-20T23:26:04.514Z,28.10
2022-10-20T23:28:32.300Z,28.47
2022-10-20T23:31:25.556Z,25.70
2022-10-20T23:33:55.882Z,27.77
2022-10-20T23:36:23.302Z,23.37
2022-10-20T23:38:50.405Z,27.97
2022-10-20T23:41:17.770Z,27.77
2022-10-20T23:43:44.746Z,25.10
2022-10-20T23:46:14.764Z,27.43
2022-10-20T23:48:41.904Z,23.87
2022-10-20T23:51:09.491Z,24.50
2022-10-20T23:53:37.085Z,24.03
2022-10-20T23:56:04.684Z,26.03
2022-10-20T23:58:31.747Z,21.83
